createdAt,value
2018-07-09T00:00:12.301Z,27.51
2018-07-09T00:01:17.120Z,27.54
2018-07-09T00:02:12.301Z,27.49
2018-07-09T00:03:12.270Z,27.47
2018-07-09T00:04:12.255Z,27.51
2018-07-09T00:05:12.252Z,27.54
2018-07-09T00:06:12.296Z,27.54
2018-07-09T00:07:12.258Z,27.51
2018-07-09T00:08:12.220Z,27.54
2018-07-09T00:09:12.226Z,27.49
2018-07-09T00:10:12.196Z,27.47
2018-07-09T00:11:12.187Z,27.50
2018-07-09T00:12:12.173Z,27.43
2018-07-09T00:13:12.208Z,27.49
2018-07-09T00:14:12.482Z,27.47
2018-07-09T00:15:12.136Z,27.51
2018-07-09T00:16:12.168Z,27.50
2018-07-09T00:17:12.120Z,27.50
2018-07-09T00:18:12.111Z,27.47
2018-07-09T00:19:12.128Z,27.49
2018-07-09T00:20:12.119Z,27.47
2018-07-09T00:21:12.073Z,27.51
2018-07-09T00:22:12.063Z,27.41
2018-07-09T00:23:12.084Z,27.49
2018-07-09T00:24:12.042Z,27.50
2018-07-09T00:25:12.063Z,27.41
2018-07-09T00:26:12.024Z,27.41
2018-07-09T00:27:12.025Z,27.40
2018-07-09T00:28:11.998Z,27.41
2018-07-09T00:29:11.996Z,27.44
2018-07-09T00:30:11.999Z,27.46
2018-07-09T00:31:11.999Z,27.44
2018-07-09T00:32:12.010Z,27.40
2018-07-09T00:33:11.946Z,27.46
2018-07-09T00:34:11.948Z,27.49
2018-07-09T00:35:11.943Z,27.46
2018-07-09T00:36:11.910Z,27.46
2018-07-09T00:37:11.958Z,27.40
2018-07-09T00:38:11.890Z,27.43
2018-07-09T00:39:11.882Z,27.43
2018-07-09T00:40:11.867Z,27.32
2018-07-09T00:41:11.892Z,27.37
2018-07-09T00:42:11.845Z,27.40
2018-07-09T00:43:11.872Z,27.32
2018-07-09T00:44:11.845Z,27.40
2018-07-09T00:45:11.813Z,27.37
2018-07-09T00:46:11.807Z,27.41
2018-07-09T00:47:11.800Z,27.37
2018-07-09T00:48:11.797Z,27.37
2018-07-09T00:49:11.810Z,27.36
2018-07-09T00:50:11.762Z,27.36
2018-07-09T00:51:11.775Z,27.31
2018-07-09T00:52:11.740Z,27.37
2018-07-09T00:53:11.744Z,27.24
2018-07-09T00:54:11.752Z,27.31
2018-07-09T00:55:11.732Z,27.32
2018-07-09T00:56:11.699Z,27.29
2018-07-09T00:57:11.733Z,27.36
2018-07-09T00:58:11.699Z,27.32
2018-07-09T00:59:12.002Z,27.29
2018-07-09T01:00:11.685Z,27.32
2018-07-09T01:01:11.653Z,27.32
2018-07-09T01:02:16.453Z,27.34
2018-07-09T01:03:11.619Z,27.29
2018-07-09T01:04:11.614Z,27.29
2018-07-09T01:05:11.626Z,27.32
2018-07-09T01:06:11.632Z,27.28
2018-07-09T01:07:11.580Z,27.29
2018-07-09T01:08:11.573Z,27.32
2018-07-09T01:09:11.571Z,27.29
2018-07-09T01:10:11.545Z,27.22
2018-07-09T01:11:11.558Z,27.29
2018-07-09T01:12:11.592Z,27.24
2018-07-09T01:13:11.513Z,27.27
2018-07-09T01:14:11.504Z,27.27
2018-07-09T01:15:11.508Z,27.27
2018-07-09T01:16:11.502Z,27.27
2018-07-09T01:17:11.469Z,27.22
2018-07-09T01:18:11.503Z,27.28
2018-07-09T01:19:11.470Z,27.25
2018-07-09T01:20:11.441Z,27.19
2018-07-09T01:21:11.426Z,27.14
2018-07-09T01:22:11.416Z,27.25
2018-07-09T01:23:11.432Z,27.12
2018-07-09T01:24:11.429Z,27.27
2018-07-09T01:25:11.387Z,27.25
2018-07-09T01:26:11.392Z,27.17
2018-07-09T01:27:11.363Z,27.10
2018-07-09T01:28:11.356Z,27.13
2018-07-09T01:29:11.348Z,27.12
2018-07-09T01:30:11.375Z,27.17
2018-07-09T01:31:11.322Z,27.17
2018-07-09T01:32:11.309Z,27.25
2018-07-09T01:33:11.320Z,27.21
2018-07-09T01:34:11.291Z,27.21
2018-07-09T01:35:11.292Z,27.18
2018-07-09T01:36:11.299Z,27.14
2018-07-09T01:37:11.279Z,27.17
2018-07-09T01:38:11.243Z,27.14
2018-07-09T01:39:11.239Z,27.21
2018-07-09T01:40:11.244Z,27.14
2018-07-09T01:41:11.233Z,27.17
2018-07-09T01:42:11.244Z,27.09
2018-07-09T01:43:11.192Z,27.10
2018-07-09T01:44:11.198Z,27.18
2018-07-09T01:45:11.172Z,27.13
2018-07-09T01:46:11.168Z,27.14
2018-07-09T01:47:11.185Z,27.18
2018-07-09T01:48:11.172Z,27.22
2018-07-09T01:49:11.127Z,26.97
2018-07-09T01:50:11.116Z,27.18
2018-07-09T01:51:11.127Z,27.09
2018-07-09T01:52:11.093Z,27.19
2018-07-09T01:53:11.099Z,27.06
2018-07-09T01:54:11.140Z,27.17
2018-07-09T01:55:11.065Z,27.09
2018-07-09T01:56:11.050Z,27.14
2018-07-09T01:57:11.042Z,27.10
2018-07-09T01:58:11.046Z,27.12
2018-07-09T01:59:11.032Z,27.09
2018-07-09T02:00:11.041Z,27.12
2018-07-09T02:01:11.018Z,27.09
2018-07-09T02:02:10.990Z,27.09
2018-07-09T02:03:15.776Z,27.12
2018-07-09T02:04:10.969Z,27.09
2018-07-09T02:05:10.977Z,27.06
2018-07-09T02:06:10.992Z,26.99
2018-07-09T02:07:10.934Z,27.10
2018-07-09T02:08:10.951Z,27.07
2018-07-09T02:09:10.918Z,27.10
2018-07-09T02:10:10.903Z,27.09
2018-07-09T02:11:10.895Z,27.10
2018-07-09T02:12:10.939Z,27.09
2018-07-09T02:13:10.875Z,27.13
2018-07-09T02:14:10.862Z,27.13
2018-07-09T02:15:10.871Z,27.09
2018-07-09T02:16:10.842Z,27.06
2018-07-09T02:17:10.827Z,27.13
2018-07-09T02:18:10.858Z,27.17
2018-07-09T02:19:10.825Z,27.09
2018-07-09T02:20:10.795Z,27.06
2018-07-09T02:21:10.790Z,27.10
2018-07-09T02:22:10.796Z,27.04
2018-07-09T02:23:10.766Z,27.04
2018-07-09T02:24:10.796Z,27.06
2018-07-09T02:25:10.740Z,26.97
2018-07-09T02:26:10.753Z,27.09
2018-07-09T02:27:10.723Z,27.00
2018-07-09T02:28:10.712Z,27.06
2018-07-09T02:29:10.717Z,27.06
2018-07-09T02:30:10.728Z,27.02
2018-07-09T02:31:10.680Z,26.99
2018-07-09T02:32:10.672Z,26.95
2018-07-09T02:33:10.670Z,27.00
2018-07-09T02:34:10.646Z,27.07
2018-07-09T02:35:10.639Z,27.09
2018-07-09T02:36:10.706Z,26.97
2018-07-09T02:37:10.615Z,26.95
2018-07-09T02:38:10.606Z,26.97
2018-07-09T02:39:10.595Z,26.99
2018-07-09T02:40:10.597Z,27.07
2018-07-09T02:41:10.575Z,27.06
2018-07-09T02:42:10.610Z,27.00
2018-07-09T02:43:10.574Z,27.03
2018-07-09T02:44:10.540Z,27.06
2018-07-09T02:45:10.527Z,27.00
2018-07-09T02:46:10.518Z,27.03
2018-07-09T02:47:10.522Z,27.04
2018-07-09T02:48:10.546Z,27.00
2018-07-09T02:49:10.537Z,26.94
2018-07-09T02:50:10.498Z,26.95
2018-07-09T02:51:10.466Z,26.97
2018-07-09T02:52:10.457Z,27.03
2018-07-09T02:53:10.443Z,26.95
2018-07-09T02:54:10.489Z,26.95
2018-07-09T02:55:10.422Z,26.91
2018-07-09T02:56:10.412Z,26.97
2018-07-09T02:57:10.421Z,27.00
2018-07-09T02:58:10.392Z,26.88
2018-07-09T02:59:10.385Z,26.94
2018-07-09T03:00:10.421Z,26.85
2018-07-09T03:01:10.535Z,26.94
2018-07-09T03:02:10.351Z,26.92
2018-07-09T03:03:10.334Z,26.94
2018-07-09T03:04:15.160Z,26.92
2018-07-09T03:05:10.320Z,26.89
2018-07-09T03:06:10.361Z,26.94
2018-07-09T03:07:10.292Z,26.88
2018-07-09T03:08:10.305Z,26.95
2018-07-09T03:09:10.285Z,26.95
2018-07-09T03:10:10.265Z,26.91
2018-07-09T03:11:10.281Z,26.95
2018-07-09T03:12:10.307Z,26.89
2018-07-09T03:13:10.231Z,26.94
2018-07-09T03:14:10.221Z,26.88
2018-07-09T03:15:10.231Z,26.91
2018-07-09T03:16:10.206Z,26.89
2018-07-09T03:17:10.208Z,26.92
2018-07-09T03:18:10.245Z,26.89
2018-07-09T03:19:10.255Z,26.89
2018-07-09T03:20:10.165Z,26.89
2018-07-09T03:21:10.145Z,26.89
2018-07-09T03:22:10.150Z,26.87
2018-07-09T03:23:10.123Z,26.89
2018-07-09T03:24:10.164Z,26.94
2018-07-09T03:25:10.145Z,26.91
2018-07-09T03:26:10.106Z,26.94
2018-07-09T03:27:10.081Z,26.87
2018-07-09T03:28:10.078Z,26.92
2018-07-09T03:29:10.124Z,26.88
2018-07-09T03:30:10.090Z,26.87
2018-07-09T03:31:10.046Z,26.89
2018-07-09T03:32:10.051Z,26.89
2018-07-09T03:33:10.345Z,26.87
2018-07-09T03:34:10.009Z,26.87
2018-07-09T03:35:10.030Z,26.92
2018-07-09T03:36:10.047Z,26.99
2018-07-09T03:37:09.977Z,26.82
2018-07-09T03:38:09.967Z,26.88
2018-07-09T03:39:09.980Z,26.82
2018-07-09T03:40:09.944Z,26.89
2018-07-09T03:41:09.934Z,26.85
2018-07-09T03:42:09.965Z,26.88
2018-07-09T03:43:09.923Z,26.88
2018-07-09T03:44:09.901Z,26.92
2018-07-09T03:45:09.888Z,26.82
2018-07-09T03:46:09.896Z,26.89
2018-07-09T03:47:09.867Z,26.87
2018-07-09T03:48:09.905Z,26.85
2018-07-09T03:49:09.851Z,26.92
2018-07-09T03:50:09.857Z,26.87
2018-07-09T03:51:09.826Z,26.94
2018-07-09T03:52:09.817Z,26.94
2018-07-09T03:53:09.830Z,26.85
2018-07-09T03:54:09.829Z,26.89
2018-07-09T03:55:09.782Z,26.85
2018-07-09T03:56:09.773Z,26.92
2018-07-09T03:57:09.778Z,26.87
2018-07-09T03:58:09.746Z,26.89
2018-07-09T03:59:09.743Z,26.89
2018-07-09T04:00:09.800Z,26.89
2018-07-09T04:01:09.722Z,26.91
2018-07-09T04:02:09.722Z,26.87
2018-07-09T04:03:09.698Z,26.91
2018-07-09T04:04:09.709Z,26.88
2018-07-09T04:05:09.676Z,26.91
2018-07-09T04:06:14.522Z,26.87
2018-07-09T04:07:09.686Z,26.97
2018-07-09T04:08:09.648Z,26.91
2018-07-09T04:09:09.637Z,26.89
2018-07-09T04:10:09.685Z,26.95
2018-07-09T04:11:09.645Z,26.89
2018-07-09T04:12:09.658Z,26.92
2018-07-09T04:13:09.589Z,26.97
2018-07-09T04:14:09.711Z,26.88
2018-07-09T04:15:09.584Z,26.91
2018-07-09T04:16:09.559Z,26.94
2018-07-09T04:17:09.598Z,26.88
2018-07-09T04:18:09.562Z,26.95
2018-07-09T04:19:09.528Z,27.00
2018-07-09T04:20:09.525Z,27.00
2018-07-09T04:21:09.529Z,26.94
2018-07-09T04:22:09.492Z,26.92
2018-07-09T04:23:09.526Z,26.88
2018-07-09T04:24:09.484Z,26.92
2018-07-09T04:25:09.481Z,27.03
2018-07-09T04:26:09.469Z,26.92
2018-07-09T04:27:09.443Z,26.99
2018-07-09T04:28:09.451Z,27.02
2018-07-09T04:29:09.476Z,27.07
2018-07-09T04:30:09.407Z,27.06
2018-07-09T04:31:09.400Z,26.99
2018-07-09T04:32:09.405Z,26.99
2018-07-09T04:33:09.380Z,27.06
2018-07-09T04:34:09.391Z,26.99
2018-07-09T04:35:09.411Z,27.06
2018-07-09T04:36:09.344Z,27.07
2018-07-09T04:37:09.337Z,27.04
2018-07-09T04:38:09.325Z,27.00
2018-07-09T04:39:09.333Z,27.00
2018-07-09T04:40:09.332Z,27.07
2018-07-09T04:41:09.312Z,27.07
2018-07-09T04:42:09.310Z,27.00
2018-07-09T04:43:09.315Z,27.07
2018-07-09T04:44:09.255Z,26.99
2018-07-09T04:45:09.252Z,26.97
2018-07-09T04:46:09.288Z,27.06
2018-07-09T04:47:09.236Z,27.03
2018-07-09T04:48:09.222Z,27.02
2018-07-09T04:49:09.223Z,27.00
2018-07-09T04:50:09.192Z,27.02
2018-07-09T04:51:09.188Z,27.03
2018-07-09T04:52:09.203Z,27.13
2018-07-09T04:53:09.185Z,27.02
2018-07-09T04:54:09.151Z,27.03
2018-07-09T04:55:09.138Z,27.09
2018-07-09T04:56:09.155Z,27.06
2018-07-09T04:57:09.122Z,27.07
2018-07-09T04:58:09.140Z,27.06
2018-07-09T04:59:09.099Z,27.07
2018-07-09T05:00:09.102Z,27.10
2018-07-09T05:01:09.083Z,27.03
2018-07-09T05:02:09.067Z,27.06
2018-07-09T05:03:09.079Z,27.03
2018-07-09T05:04:09.084Z,27.03
2018-07-09T05:05:09.031Z,27.04
2018-07-09T05:06:09.032Z,27.07
2018-07-09T05:07:13.833Z,27.09
2018-07-09T05:08:09.003Z,27.13
2018-07-09T05:09:09.028Z,27.12
2018-07-09T05:10:09.009Z,27.10
2018-07-09T05:11:08.973Z,27.14
2018-07-09T05:12:08.967Z,27.19
2018-07-09T05:13:09.040Z,27.14
2018-07-09T05:14:08.952Z,27.12
2018-07-09T05:15:08.957Z,27.22
2018-07-09T05:16:08.926Z,27.22
2018-07-09T05:17:08.925Z,27.17
2018-07-09T05:18:08.912Z,27.24
2018-07-09T05:19:08.884Z,27.19
2018-07-09T05:20:08.872Z,27.24
2018-07-09T05:21:08.922Z,27.24
2018-07-09T05:22:08.851Z,27.25
2018-07-09T05:24:17.670Z,27.25
2018-07-09T05:25:17.658Z,27.28
2018-07-09T05:26:17.690Z,27.28
2018-07-09T05:27:17.660Z,27.31
2018-07-09T05:28:17.625Z,27.27
2018-07-09T05:29:17.632Z,27.31
2018-07-09T05:30:17.660Z,27.28
2018-07-09T05:31:17.593Z,27.32
2018-07-09T05:32:17.625Z,27.31
2018-07-09T05:33:17.630Z,27.34
2018-07-09T05:34:17.599Z,27.28
2018-07-09T05:35:17.555Z,27.31
2018-07-09T05:36:17.869Z,27.34
2018-07-09T05:37:17.546Z,27.34
2018-07-09T05:38:17.912Z,27.28
2018-07-09T05:39:17.508Z,27.32
2018-07-09T05:40:17.507Z,27.36
2018-07-09T05:41:17.498Z,27.29
2018-07-09T05:42:17.472Z,27.31
2018-07-09T05:43:17.466Z,27.25
2018-07-09T05:44:17.518Z,27.36
2018-07-09T05:45:17.447Z,27.32
2018-07-09T05:46:17.476Z,27.37
2018-07-09T05:47:17.432Z,27.34
2018-07-09T05:48:17.446Z,27.36
2018-07-09T05:49:17.401Z,27.34
2018-07-09T05:50:17.440Z,27.43
2018-07-09T05:51:17.398Z,27.37
2018-07-09T05:52:17.367Z,27.34
2018-07-09T05:53:17.360Z,27.40
2018-07-09T05:54:17.345Z,27.46
2018-07-09T05:55:17.410Z,27.40
2018-07-09T05:56:17.324Z,27.37
2018-07-09T05:57:17.316Z,27.36
2018-07-09T05:58:17.320Z,27.46
2018-07-09T05:59:17.290Z,27.32
2018-07-09T06:00:17.287Z,27.43
2018-07-09T06:01:17.306Z,27.43
2018-07-09T06:02:17.270Z,27.46
2018-07-09T06:03:17.248Z,27.46
2018-07-09T06:04:17.247Z,27.46
2018-07-09T06:05:17.244Z,27.46
2018-07-09T06:06:17.227Z,27.46
2018-07-09T06:07:17.237Z,27.40
2018-07-09T06:08:22.011Z,27.41
2018-07-09T06:09:17.203Z,27.40
2018-07-09T06:10:17.180Z,27.43
2018-07-09T06:11:17.261Z,27.39
2018-07-09T06:12:17.178Z,27.43
2018-07-09T06:13:17.202Z,27.49
2018-07-09T06:14:17.132Z,27.44
2018-07-09T06:15:17.123Z,27.40
2018-07-09T06:16:17.143Z,27.43
2018-07-09T06:17:17.100Z,27.44
2018-07-09T06:18:17.091Z,27.41
2018-07-09T06:19:17.245Z,27.44
2018-07-09T06:20:17.067Z,27.46
2018-07-09T06:21:17.060Z,27.44
2018-07-09T06:22:17.076Z,27.41
2018-07-09T06:23:17.051Z,27.41
2018-07-09T06:24:17.024Z,27.51
2018-07-09T06:25:17.050Z,27.51
2018-07-09T06:26:17.035Z,27.44
2018-07-09T06:27:16.994Z,27.46
2018-07-09T06:28:16.984Z,27.47
2018-07-09T06:29:16.971Z,27.44
2018-07-09T06:30:16.985Z,27.47
2018-07-09T06:31:16.979Z,27.46
2018-07-09T06:32:16.939Z,27.49
2018-07-09T06:33:16.959Z,27.44
2018-07-09T06:34:18.802Z,27.49
2018-07-09T06:35:16.914Z,27.43
2018-07-09T06:36:16.903Z,27.46
2018-07-09T06:37:16.950Z,27.51
2018-07-09T06:38:16.869Z,27.41
2018-07-09T06:39:16.864Z,27.41
2018-07-09T06:40:16.873Z,27.49
2018-07-09T06:41:16.849Z,27.43
2018-07-09T06:42:16.829Z,27.41
2018-07-09T06:43:16.855Z,27.41
2018-07-09T06:44:16.837Z,27.50
2018-07-09T06:45:16.797Z,27.59
2018-07-09T06:46:16.786Z,27.47
2018-07-09T06:47:21.496Z,27.50
2018-07-09T06:48:16.794Z,27.50
2018-07-09T06:49:16.783Z,27.44
2018-07-09T06:50:16.743Z,27.50
2018-07-09T06:51:16.761Z,27.50
2018-07-09T06:52:16.723Z,27.51
2018-07-09T06:53:16.712Z,27.55
2018-07-09T06:54:16.738Z,27.46
2018-07-09T06:55:16.728Z,27.59
2018-07-09T06:56:16.676Z,27.47
2018-07-09T06:57:16.669Z,27.47
2018-07-09T06:58:16.688Z,27.51
2018-07-09T06:59:16.681Z,27.47
2018-07-09T07:00:16.666Z,27.47
2018-07-09T07:01:16.643Z,27.55
2018-07-09T07:02:16.658Z,27.47
2018-07-09T07:03:16.602Z,27.54
2018-07-09T07:04:16.599Z,27.54
2018-07-09T07:05:16.598Z,27.54
2018-07-09T07:06:16.610Z,27.57
2018-07-09T07:07:16.560Z,27.47
2018-07-09T07:08:16.590Z,27.55
2018-07-09T07:09:21.357Z,27.51
2018-07-09T07:10:16.530Z,27.55
2018-07-09T07:11:16.519Z,27.49
2018-07-09T07:12:16.549Z,27.57
2018-07-09T07:13:16.523Z,27.49
2018-07-09T07:14:16.489Z,27.57
2018-07-09T07:15:16.498Z,27.59
2018-07-09T07:16:16.464Z,27.57
2018-07-09T07:17:16.460Z,27.57
2018-07-09T07:18:16.482Z,27.63
2018-07-09T07:19:16.447Z,27.63
2018-07-09T07:20:16.421Z,27.59
2018-07-09T07:21:16.406Z,27.59
2018-07-09T07:22:16.421Z,27.60
2018-07-09T07:23:16.458Z,27.67
2018-07-09T07:24:16.373Z,27.63
2018-07-09T07:25:16.421Z,27.57
2018-07-09T07:26:16.387Z,27.60
2018-07-09T07:27:16.355Z,27.63
2018-07-09T07:28:16.332Z,27.72
2018-07-09T07:29:16.411Z,27.69
2018-07-09T07:30:16.320Z,27.60
2018-07-09T07:31:16.302Z,27.65
2018-07-09T07:32:16.289Z,27.63
2018-07-09T07:33:16.384Z,27.62
2018-07-09T07:34:16.275Z,27.65
2018-07-09T07:35:16.304Z,27.65
2018-07-09T07:36:16.272Z,27.74
2018-07-09T07:37:16.235Z,27.63
2018-07-09T07:38:16.224Z,27.63
2018-07-09T07:39:16.228Z,27.72
2018-07-09T07:40:16.227Z,27.74
2018-07-09T07:41:16.230Z,27.63
2018-07-09T07:42:16.192Z,27.72
2018-07-09T07:43:16.204Z,27.72
2018-07-09T07:44:16.163Z,27.75
2018-07-09T07:45:16.158Z,27.74
2018-07-09T07:46:16.145Z,27.77
2018-07-09T07:47:16.182Z,27.70
2018-07-09T07:48:16.128Z,27.74
2018-07-09T07:49:16.109Z,27.74
2018-07-09T07:50:16.144Z,27.67
2018-07-09T07:51:16.089Z,27.70
2018-07-09T07:52:16.082Z,27.78
2018-07-09T07:53:16.119Z,27.74
2018-07-09T07:54:16.075Z,27.67
2018-07-09T07:55:16.069Z,27.78
2018-07-09T07:56:16.035Z,27.69
2018-07-09T07:57:16.045Z,27.69
2018-07-09T07:58:16.023Z,27.75
2018-07-09T07:59:16.044Z,27.82
2018-07-09T08:00:16.014Z,27.78
2018-07-09T08:01:16.067Z,27.77
2018-07-09T08:02:15.972Z,27.78
2018-07-09T08:03:15.960Z,27.85
2018-07-09T08:04:16.009Z,27.84
2018-07-09T08:05:16.134Z,27.85
2018-07-09T08:06:15.971Z,27.82
2018-07-09T08:07:15.920Z,27.88
2018-07-09T08:08:15.973Z,27.85
2018-07-09T08:09:15.947Z,27.79
2018-07-09T08:10:20.866Z,27.78
2018-07-09T08:11:15.879Z,27.74
2018-07-09T08:13:00.537Z,27.77
2018-07-09T08:13:27.982Z,27.74
2018-07-09T08:14:16.864Z,27.75
2018-07-09T08:15:15.837Z,27.70
2018-07-09T08:16:15.854Z,27.74
2018-07-09T08:17:15.840Z,27.75
2018-07-09T08:18:15.805Z,27.74
2018-07-09T08:19:15.821Z,27.82
2018-07-09T08:20:15.783Z,27.77
2018-07-09T08:21:15.782Z,27.70
2018-07-09T08:22:15.814Z,27.75
2018-07-09T08:23:15.751Z,27.75
2018-07-09T08:24:15.762Z,27.67
2018-07-09T08:25:15.728Z,27.69
2018-07-09T08:26:15.718Z,27.65
2018-07-09T08:27:15.703Z,27.65
2018-07-09T08:28:15.741Z,27.62
2018-07-09T08:29:15.771Z,27.66
2018-07-09T08:30:15.678Z,27.69
2018-07-09T08:31:15.733Z,27.67
2018-07-09T08:32:15.671Z,27.60
2018-07-09T08:33:15.791Z,27.65
2018-07-09T08:34:15.709Z,27.67
2018-07-09T08:35:15.635Z,27.63
2018-07-09T08:36:15.606Z,27.67
2018-07-09T08:37:15.614Z,27.74
2018-07-09T08:38:15.619Z,27.70
2018-07-09T08:39:15.589Z,27.77
2018-07-09T08:40:15.619Z,27.79
2018-07-09T08:41:15.552Z,27.78
2018-07-09T08:42:15.559Z,27.79
2018-07-09T08:43:15.544Z,27.81
2018-07-09T08:44:15.520Z,27.92
2018-07-09T08:45:15.577Z,27.97
2018-07-09T08:46:15.542Z,27.99
2018-07-09T08:47:15.499Z,28.06
2018-07-09T08:48:15.488Z,28.11
2018-07-09T08:49:15.488Z,28.09
2018-07-09T08:50:15.506Z,28.14
2018-07-09T08:51:15.453Z,28.09
2018-07-09T08:52:15.493Z,28.18
2018-07-09T08:53:15.440Z,28.24
2018-07-09T08:54:15.425Z,28.31
2018-07-09T08:55:15.449Z,28.25
2018-07-09T08:56:15.424Z,28.39
2018-07-09T08:57:15.439Z,28.37
2018-07-09T08:58:15.414Z,28.34
2018-07-09T08:59:15.405Z,28.48
2018-07-09T09:00:15.384Z,28.36
2018-07-09T09:01:15.367Z,28.34
2018-07-09T09:02:15.339Z,28.43
2018-07-09T09:03:15.345Z,28.36
2018-07-09T09:04:15.350Z,28.31
2018-07-09T09:05:15.319Z,28.37
2018-07-09T09:06:15.320Z,28.30
2018-07-09T09:07:15.291Z,28.40
2018-07-09T09:08:15.279Z,28.34
2018-07-09T09:09:15.273Z,28.44
2018-07-09T09:10:15.340Z,28.30
2018-07-09T09:11:15.265Z,28.36
2018-07-09T09:12:20.059Z,28.34
2018-07-09T09:13:15.255Z,28.34
2018-07-09T09:14:15.221Z,28.39
2018-07-09T09:15:15.281Z,28.34
2018-07-09T09:16:15.199Z,28.36
2018-07-09T09:17:15.221Z,28.41
2018-07-09T09:18:15.177Z,28.39
2018-07-09T09:19:15.164Z,28.40
2018-07-09T09:20:15.177Z,28.39
2018-07-09T09:21:15.173Z,28.34
2018-07-09T09:22:15.132Z,28.44
2018-07-09T09:23:15.147Z,28.39
2018-07-09T09:24:15.126Z,28.43
2018-07-09T09:25:15.099Z,28.41
2018-07-09T09:26:15.092Z,28.41
2018-07-09T10:00:01.322Z,24.68
2018-07-09T10:01:01.235Z,24.87
2018-07-09T10:02:01.174Z,24.95
2018-07-09T10:03:01.141Z,25.06
2018-07-09T10:04:01.071Z,25.18
2018-07-09T10:05:01.063Z,25.33
2018-07-09T10:06:01.091Z,25.32
2018-07-09T10:07:01.060Z,25.18
2018-07-09T10:08:01.030Z,25.21
2018-07-09T10:09:01.010Z,25.24
2018-07-09T10:10:00.997Z,25.23
2018-07-09T10:11:01.021Z,25.15
2018-07-09T10:12:01.014Z,25.09
2018-07-09T10:13:00.966Z,25.14
2018-07-09T10:14:05.815Z,24.96
2018-07-09T10:15:00.959Z,24.93
2018-07-09T10:16:00.945Z,25.05
2018-07-09T10:17:01.000Z,25.09
2018-07-09T10:18:00.949Z,25.14
2018-07-09T10:19:00.927Z,25.18
2018-07-09T10:20:00.890Z,24.88
2018-07-09T10:21:00.934Z,24.69
2018-07-09T10:22:00.869Z,24.69
2018-07-09T10:23:00.970Z,24.71
2018-07-09T10:24:00.942Z,24.93
2018-07-09T10:25:00.899Z,24.95
2018-07-09T10:26:00.824Z,25.00
2018-07-09T10:27:00.843Z,25.09
2018-07-09T10:28:00.847Z,25.23
2018-07-09T10:29:00.788Z,25.40
2018-07-09T10:30:00.805Z,25.46
2018-07-09T10:31:00.811Z,25.50
2018-07-09T10:32:00.761Z,25.25
2018-07-09T10:33:00.750Z,25.33
2018-07-09T10:34:00.745Z,25.50
2018-07-09T10:35:00.749Z,25.58
2018-07-09T10:36:00.756Z,25.73
2018-07-09T10:37:01.042Z,25.79
2018-07-09T10:38:00.705Z,25.98
2018-07-09T10:39:00.701Z,26.13
2018-07-09T10:40:00.690Z,26.23
2018-07-09T10:41:00.701Z,26.26
2018-07-09T10:42:00.682Z,26.39
2018-07-09T10:43:00.686Z,26.43
2018-07-09T10:44:00.626Z,26.50
2018-07-09T10:45:00.618Z,26.52
2018-07-09T10:46:00.677Z,26.17
2018-07-09T10:47:00.707Z,26.10
2018-07-09T10:48:00.587Z,26.32
2018-07-09T10:49:00.608Z,26.36
2018-07-09T10:50:00.581Z,26.37
2018-07-09T10:51:00.572Z,26.32
2018-07-09T10:52:00.552Z,26.36
2018-07-09T10:53:00.561Z,26.29
2018-07-09T10:54:00.854Z,26.12
2018-07-09T10:55:00.525Z,25.92
2018-07-09T10:56:00.659Z,25.82
2018-07-09T10:57:00.486Z,25.58
2018-07-09T10:58:00.471Z,25.33
2018-07-09T10:59:00.507Z,25.23
2018-07-09T11:00:00.479Z,25.27
2018-07-09T11:01:00.449Z,25.39
2018-07-09T11:02:00.435Z,25.62
2018-07-09T11:03:00.455Z,25.82
2018-07-09T11:04:00.426Z,25.95
2018-07-09T11:05:00.453Z,25.87
2018-07-09T11:06:00.427Z,25.90
2018-07-09T11:07:00.394Z,25.72
2018-07-09T11:08:00.400Z,25.83
2018-07-09T11:09:00.391Z,26.10
2018-07-09T11:10:00.399Z,26.29
2018-07-09T11:11:00.366Z,26.30
2018-07-09T11:12:00.353Z,26.05
2018-07-09T11:13:00.374Z,26.21
2018-07-09T11:14:00.328Z,26.29
2018-07-09T11:15:05.112Z,26.26
2018-07-09T11:16:00.336Z,26.28
2018-07-09T11:17:00.317Z,26.29
2018-07-09T11:18:00.272Z,26.30
2018-07-09T11:19:00.254Z,26.33
2018-07-09T11:20:00.258Z,26.32
2018-07-09T11:21:00.251Z,26.50
2018-07-09T11:22:00.267Z,26.47
2018-07-09T11:23:00.230Z,26.65
2018-07-09T11:24:00.244Z,26.63
2018-07-09T11:25:00.205Z,26.67
2018-07-09T11:26:00.243Z,26.76
2018-07-09T11:27:00.172Z,26.75
2018-07-09T11:28:00.206Z,26.82
2018-07-09T11:29:00.147Z,26.81
2018-07-09T11:30:00.166Z,26.66
2018-07-09T11:31:00.209Z,26.52
2018-07-09T11:32:00.118Z,26.32
2018-07-09T11:33:00.159Z,26.29
2018-07-09T11:34:00.145Z,26.23
2018-07-09T11:35:00.177Z,26.15
2018-07-09T11:36:00.119Z,26.02
2018-07-09T11:37:00.072Z,25.98
2018-07-09T11:38:00.087Z,25.83
2018-07-09T11:39:00.046Z,25.77
2018-07-09T11:40:00.072Z,25.64
2018-07-09T11:41:00.090Z,25.58
2018-07-09T11:42:00.008Z,25.60
2018-07-09T11:43:00.001Z,25.55
2018-07-09T11:44:00.049Z,25.57
2018-07-09T11:45:00.024Z,25.72
2018-07-09T11:46:00.007Z,25.83
2018-07-09T11:46:59.959Z,25.94
2018-07-09T11:47:59.971Z,26.12
2018-07-09T11:48:59.962Z,26.13
2018-07-09T11:49:59.932Z,26.10
2018-07-09T11:50:59.915Z,26.05
2018-07-09T11:52:00.055Z,26.01
2018-07-09T11:52:59.991Z,25.98
2018-07-09T11:53:59.884Z,25.83
2018-07-09T11:54:59.904Z,25.80
2018-07-09T11:55:59.990Z,25.82
2018-07-09T11:56:59.853Z,25.69
2018-07-09T11:57:59.874Z,25.52
2018-07-09T11:58:59.969Z,25.45
2018-07-09T11:59:59.843Z,25.42
2018-07-09T12:00:59.850Z,25.24
2018-07-09T12:01:59.835Z,25.28
2018-07-09T12:02:59.828Z,25.13
2018-07-09T12:03:59.785Z,25.18
2018-07-09T12:04:59.795Z,25.18
2018-07-09T12:05:59.799Z,25.13
2018-07-09T12:06:59.795Z,25.27
2018-07-09T12:07:59.762Z,25.15
2018-07-09T12:08:59.765Z,25.24
2018-07-09T12:09:59.872Z,25.17
2018-07-09T12:10:59.728Z,25.27
2018-07-09T12:11:59.688Z,25.35
2018-07-09T12:12:59.723Z,25.27
2018-07-09T12:13:59.691Z,25.17
2018-07-09T12:14:59.802Z,25.24
2018-07-09T12:16:04.469Z,25.28
2018-07-09T12:16:59.638Z,25.25
2018-07-09T12:17:59.628Z,25.20
2018-07-09T12:18:59.720Z,25.27
2018-07-09T12:19:59.644Z,25.25
2018-07-09T12:20:59.693Z,25.30
2018-07-09T12:21:59.582Z,25.36
2018-07-09T12:22:59.599Z,25.39
2018-07-09T12:23:59.563Z,25.35
2018-07-09T12:24:59.560Z,25.43
2018-07-09T12:25:59.561Z,25.58
2018-07-09T12:26:59.634Z,25.55
2018-07-09T12:27:59.573Z,25.87
2018-07-09T12:28:59.625Z,25.83
2018-07-09T12:29:59.632Z,25.99
2018-07-09T12:30:59.525Z,26.15
2018-07-09T12:31:59.477Z,26.29
2018-07-09T12:32:59.505Z,26.43
2018-07-09T12:33:59.546Z,26.54
2018-07-09T12:34:59.467Z,26.58
2018-07-09T12:35:59.437Z,26.48
2018-07-09T12:36:59.419Z,26.35
2018-07-09T12:37:59.408Z,26.13
2018-07-09T12:38:59.430Z,26.02
2018-07-09T12:39:59.509Z,25.85
2018-07-09T12:40:59.468Z,25.79
2018-07-09T12:41:59.383Z,25.77
2018-07-09T12:42:59.349Z,25.64
2018-07-09T12:43:59.355Z,25.52
2018-07-09T12:44:59.413Z,25.45
2018-07-09T12:45:59.310Z,25.52
2018-07-09T12:47:04.164Z,25.43
2018-07-09T12:48:04.100Z,25.54
2018-07-09T12:48:59.337Z,25.64
2018-07-09T12:49:59.303Z,25.67
2018-07-09T12:50:59.326Z,25.73
2018-07-09T12:51:59.332Z,25.64
2018-07-09T12:52:59.254Z,25.62
2018-07-09T12:53:59.344Z,25.51
2018-07-09T12:54:59.267Z,25.57
2018-07-09T12:55:59.250Z,25.45
2018-07-09T12:57:02.284Z,25.47
2018-07-09T12:57:59.194Z,25.50
2018-07-09T12:58:59.182Z,25.45
2018-07-09T12:59:59.172Z,25.45
2018-07-09T13:00:59.221Z,25.42
2018-07-09T13:01:59.198Z,25.39
2018-07-09T13:02:59.259Z,25.47
2018-07-09T13:03:59.130Z,25.65
2018-07-09T13:04:59.160Z,25.80
2018-07-09T13:05:59.097Z,25.85
2018-07-09T13:06:59.185Z,25.99
2018-07-09T13:07:59.159Z,26.20
2018-07-09T13:08:59.175Z,26.17
2018-07-09T13:09:59.104Z,26.25
2018-07-09T13:10:59.037Z,26.36
2018-07-09T13:11:59.059Z,26.44
2018-07-09T13:12:59.029Z,26.52
2018-07-09T13:13:59.044Z,26.62
2018-07-09T13:14:59.040Z,26.63
2018-07-09T13:15:59.053Z,26.62
2018-07-09T13:16:58.992Z,26.67
2018-07-09T13:17:58.993Z,26.81
2018-07-09T13:18:59.028Z,26.92
2018-07-09T13:19:59.050Z,26.89
2018-07-09T13:20:58.982Z,26.73
2018-07-09T13:21:58.924Z,26.60
2018-07-09T13:22:58.957Z,26.48
2018-07-09T13:23:58.927Z,26.30
2018-07-09T13:24:58.897Z,26.26
2018-07-09T13:25:58.885Z,26.21